createdAt,value
2023-02-24T00:00:09.308Z,979.87
2023-02-24T00:01:09.268Z,979.90
2023-02-24T00:02:09.373Z,979.87
2023-02-24T00:03:09.315Z,979.85
2023-02-24T00:04:09.241Z,979.86
2023-02-24T00:05:09.224Z,979.83
2023-02-24T00:06:09.219Z,979.84
2023-02-24T00:07:09.195Z,979.82
2023-02-24T00:08:09.185Z,979.82
2023-02-24T00:09:09.176Z,979.78
2023-02-24T00:10:09.170Z,979.75
2023-02-24T00:11:09.158Z,979.81
2023-02-24T00:12:09.190Z,979.80
2023-02-24T00:13:09.124Z,979.73
2023-02-24T00:14:09.148Z,979.76
2023-02-24T00:15:09.124Z,979.71
2023-02-24T00:16:09.251Z,979.76
2023-02-24T00:17:09.226Z,979.75
2023-02-24T00:18:09.063Z,979.71
2023-02-24T00:19:09.082Z,979.72
2023-02-24T00:20:09.034Z,979.73
2023-02-24T00:21:10.522Z,979.71
2023-02-24T00:22:09.128Z,979.67
2023-02-24T00:23:09.022Z,979.68
2023-02-24T00:24:08.994Z,979.63
2023-02-24T00:25:08.984Z,979.62
2023-02-24T00:26:08.990Z,979.66
2023-02-24T00:27:08.962Z,979.61
2023-02-24T00:28:08.976Z,979.62
2023-02-24T00:29:08.958Z,979.60
2023-02-24T00:30:08.925Z,979.60
2023-02-24T00:31:09.166Z,979.61
2023-02-24T00:32:09.118Z,979.59
2023-02-24T00:33:08.970Z,979.54
2023-02-24T00:34:08.882Z,979.50
2023-02-24T00:35:08.914Z,979.50
2023-02-24T00:36:08.869Z,979.48
2023-02-24T00:37:08.873Z,979.46
2023-02-24T00:38:08.801Z,979.44
2023-02-24T00:39:08.835Z,979.42
2023-02-24T00:40:08.769Z,979.41
2023-02-24T00:41:08.765Z,979.42
2023-02-24T00:42:08.803Z,979.42
2023-02-24T00:43:08.799Z,979.46
2023-02-24T00:44:08.779Z,979.41
2023-02-24T00:45:08.777Z,979.38
2023-02-24T00:46:08.820Z,979.41
2023-02-24T00:47:08.791Z,979.39
2023-02-24T00:48:08.735Z,979.36
2023-02-24T00:49:08.726Z,979.38
2023-02-24T00:50:08.738Z,979.35
2023-02-24T00:51:08.689Z,979.39
2023-02-24T00:52:08.684Z,979.41
2023-02-24T00:53:08.688Z,979.37
2023-02-24T00:54:08.626Z,979.34
2023-02-24T00:55:08.609Z,979.38
2023-02-24T00:56:08.592Z,979.35
2023-02-24T00:57:08.599Z,979.31
2023-02-24T00:58:08.570Z,979.30
2023-02-24T00:59:08.583Z,979.27
2023-02-24T01:00:08.555Z,979.24
2023-02-24T01:01:08.562Z,979.25
2023-02-24T01:02:08.520Z,979.20
2023-02-24T01:03:08.729Z,979.20
2023-02-24T01:04:08.524Z,979.22
2023-02-24T01:05:08.509Z,979.23
2023-02-24T01:06:08.501Z,979.21
2023-02-24T01:07:08.471Z,979.22
2023-02-24T01:08:09.182Z,979.17
2023-02-24T01:09:08.484Z,979.18
2023-02-24T01:10:08.460Z,979.16
2023-02-24T01:11:08.399Z,979.13
2023-02-24T01:12:08.513Z,979.12
2023-02-24T01:13:08.363Z,979.12
2023-02-24T01:14:08.380Z,979.11
2023-02-24T01:15:08.350Z,979.08
2023-02-24T01:16:08.379Z,979.07
2023-02-24T01:17:08.329Z,979.04
2023-02-24T01:18:08.334Z,979.03
2023-02-24T01:19:08.301Z,979.00
2023-02-24T01:20:08.321Z,978.99
2023-02-24T01:21:08.270Z,978.96
2023-02-24T01:22:08.312Z,978.95
2023-02-24T01:23:08.282Z,978.88
2023-02-24T01:24:08.260Z,978.90
2023-02-24T01:25:08.254Z,978.89
2023-02-24T01:26:08.236Z,978.84
2023-02-24T01:27:08.205Z,978.81
2023-02-24T01:28:08.216Z,978.75
2023-02-24T01:29:08.222Z,978.76
2023-02-24T01:30:08.193Z,978.74
2023-02-24T01:31:08.287Z,978.75
2023-02-24T01:32:08.352Z,978.70
2023-02-24T01:33:08.430Z,978.71
2023-02-24T01:34:08.160Z,978.68
2023-02-24T01:35:08.208Z,978.68
2023-02-24T01:36:08.141Z,978.65
2023-02-24T01:37:08.105Z,978.63
2023-02-24T01:38:08.112Z,978.62
2023-02-24T01:39:08.147Z,978.61
2023-02-24T01:40:08.089Z,978.57
2023-02-24T01:41:08.065Z,978.58
2023-02-24T01:42:08.059Z,978.61
2023-02-24T01:43:08.068Z,978.59
2023-02-24T01:44:08.040Z,978.51
2023-02-24T01:45:08.042Z,978.57
2023-02-24T01:46:08.062Z,978.55
2023-02-24T01:47:07.989Z,978.53
2023-02-24T01:48:07.991Z,978.51
2023-02-24T01:49:08.000Z,978.54
2023-02-24T01:50:07.972Z,978.48
2023-02-24T01:51:07.960Z,978.46
2023-02-24T01:52:07.958Z,978.46
2023-02-24T01:53:07.932Z,978.44
2023-02-24T01:54:07.936Z,978.43
2023-02-24T01:55:07.881Z,978.40
2023-02-24T01:56:07.934Z,978.39
2023-02-24T01:57:07.874Z,978.37
2023-02-24T01:58:07.941Z,978.37
2023-02-24T01:59:07.832Z,978.37
2023-02-24T02:00:07.860Z,978.42
2023-02-24T02:01:07.833Z,978.40
2023-02-24T02:02:08.003Z,978.37
2023-02-24T02:03:07.820Z,978.39
2023-02-24T02:04:07.817Z,978.39
2023-02-24T02:05:07.784Z,978.28
2023-02-24T02:06:07.792Z,978.32
2023-02-24T02:07:07.755Z,978.36
2023-02-24T02:08:07.775Z,978.31
2023-02-24T02:09:07.753Z,978.36
2023-02-24T02:10:07.754Z,978.29
2023-02-24T02:11:07.700Z,978.28
2023-02-24T02:12:07.722Z,978.32
2023-02-24T02:13:07.724Z,978.28
2023-02-24T02:14:07.704Z,978.24
2023-02-24T02:15:07.704Z,978.25
2023-02-24T02:16:07.726Z,978.25
2023-02-24T02:17:07.640Z,978.22
2023-02-24T02:18:07.651Z,978.20
2023-02-24T02:19:07.622Z,978.24
2023-02-24T02:20:07.641Z,978.22
2023-02-24T02:21:07.583Z,978.18
2023-02-24T02:22:07.612Z,978.17
2023-02-24T02:23:07.664Z,978.20
2023-02-24T02:24:07.660Z,978.18
2023-02-24T02:25:07.557Z,978.14
2023-02-24T02:26:07.584Z,978.17
2023-02-24T02:27:07.527Z,978.13
2023-02-24T02:28:07.539Z,978.12
2023-02-24T02:29:07.495Z,978.11
2023-02-24T02:30:07.554Z,978.09
2023-02-24T02:31:07.583Z,978.11
2023-02-24T02:32:07.700Z,978.11
2023-02-24T02:33:07.465Z,978.05
2023-02-24T02:34:07.475Z,978.05
2023-02-24T02:35:07.437Z,978.00
2023-02-24T02:36:07.446Z,977.96
2023-02-24T02:37:07.509Z,977.99
2023-02-24T02:38:07.432Z,977.95
2023-02-24T02:39:07.411Z,977.99
2023-02-24T02:40:07.397Z,977.94
2023-02-24T02:41:07.352Z,977.91
2023-02-24T02:42:07.406Z,977.93
2023-02-24T02:43:07.368Z,977.90
2023-02-24T02:44:07.358Z,977.90
2023-02-24T02:45:07.343Z,977.91
2023-02-24T02:46:07.359Z,977.88
2023-02-24T02:47:07.320Z,977.84
2023-02-24T02:48:07.307Z,977.80
2023-02-24T02:49:07.265Z,977.89
2023-02-24T02:50:07.293Z,977.85
2023-02-24T02:51:07.243Z,977.86
2023-02-24T02:52:07.257Z,977.80
2023-02-24T02:53:07.261Z,977.82
2023-02-24T02:54:07.233Z,977.81
2023-02-24T02:55:07.182Z,977.83
2023-02-24T02:56:07.216Z,977.80
2023-02-24T02:57:07.173Z,977.83
2023-02-24T02:58:07.192Z,977.79
2023-02-24T02:59:07.161Z,977.75
2023-02-24T03:00:07.183Z,977.71
2023-02-24T03:01:07.225Z,977.74
2023-02-24T03:02:07.140Z,977.74
2023-02-24T03:03:07.092Z,977.73
2023-02-24T03:04:07.126Z,977.76
2023-02-24T03:05:07.258Z,977.71
2023-02-24T03:06:07.110Z,977.72
2023-02-24T03:07:07.069Z,977.68
2023-02-24T03:08:08.499Z,977.69
2023-02-24T03:09:07.048Z,977.62
2023-02-24T03:10:07.049Z,977.60
2023-02-24T03:11:07.039Z,977.57
2023-02-24T03:12:07.025Z,977.65
2023-02-24T03:13:06.979Z,977.59
2023-02-24T03:14:07.017Z,977.60
2023-02-24T03:15:06.962Z,977.54
2023-02-24T03:16:06.978Z,977.52
2023-02-24T03:17:06.943Z,977.61
2023-02-24T03:18:06.948Z,977.54
2023-02-24T03:19:07.092Z,977.50
2023-02-24T03:20:06.946Z,977.53
2023-02-24T03:21:06.890Z,977.50
2023-02-24T03:22:06.890Z,977.48
2023-02-24T03:23:06.884Z,977.46
2023-02-24T03:24:06.886Z,977.48
2023-02-24T03:25:06.934Z,977.40
2023-02-24T03:26:06.858Z,977.41
2023-02-24T03:27:06.854Z,977.45
2023-02-24T03:28:06.852Z,977.43
2023-02-24T03:29:06.825Z,977.42
2023-02-24T03:30:07.178Z,977.41
2023-02-24T03:31:06.877Z,977.42
2023-02-24T03:32:06.818Z,977.39
2023-02-24T03:33:06.811Z,977.38
2023-02-24T03:34:06.741Z,977.38
2023-02-24T03:35:06.761Z,977.36
2023-02-24T03:36:06.733Z,977.38
2023-02-24T03:37:06.732Z,977.37
2023-02-24T03:38:06.708Z,977.38
2023-02-24T03:39:06.711Z,977.40
2023-02-24T03:40:06.677Z,977.41
2023-02-24T03:41:06.700Z,977.35
2023-02-24T03:42:06.640Z,977.37
2023-02-24T03:43:06.667Z,977.35
2023-02-24T03:44:06.611Z,977.36
2023-02-24T03:45:06.650Z,977.38
2023-02-24T03:46:07.130Z,977.40
2023-02-24T03:47:06.618Z,977.40
2023-02-24T03:48:06.575Z,977.41
2023-02-24T03:49:06.593Z,977.39
2023-02-24T03:50:06.548Z,977.37
2023-02-24T03:51:06.562Z,977.36
2023-02-24T03:52:06.529Z,977.36
2023-02-24T03:53:06.552Z,977.36
2023-02-24T03:54:06.519Z,977.36
2023-02-24T03:55:06.528Z,977.34
2023-02-24T03:56:06.505Z,977.36
2023-02-24T03:57:06.528Z,977.35
2023-02-24T03:58:06.457Z,977.34
2023-02-24T03:59:06.480Z,977.34
2023-02-24T04:00:06.436Z,977.34
2023-02-24T04:01:06.437Z,977.27
2023-02-24T04:02:06.482Z,977.27
2023-02-24T04:03:06.422Z,977.29
2023-02-24T04:04:06.400Z,977.28
2023-02-24T04:05:06.492Z,977.35
2023-02-24T04:06:06.699Z,977.27
2023-02-24T04:07:06.384Z,977.31
2023-02-24T04:08:06.353Z,977.31
2023-02-24T04:09:06.424Z,977.28
2023-02-24T04:10:06.320Z,977.32
2023-02-24T04:11:06.398Z,977.28
2023-02-24T04:12:06.292Z,977.29
2023-02-24T04:13:06.294Z,977.31
2023-02-24T04:14:06.268Z,977.34
2023-02-24T04:15:06.289Z,977.32
2023-02-24T04:16:06.332Z,977.31
2023-02-24T04:17:06.252Z,977.26
2023-02-24T04:18:06.228Z,977.25
2023-02-24T04:19:06.278Z,977.27
2023-02-24T04:20:06.205Z,977.30
2023-02-24T04:21:06.212Z,977.29
2023-02-24T04:22:06.195Z,977.29
2023-02-24T04:23:06.220Z,977.29
2023-02-24T04:24:06.154Z,977.32
2023-02-24T04:25:06.173Z,977.28
2023-02-24T04:26:06.153Z,977.30
2023-02-24T04:27:06.145Z,977.25
2023-02-24T04:28:06.116Z,977.29
2023-02-24T04:29:06.116Z,977.21
2023-02-24T04:30:06.087Z,977.20
2023-02-24T04:31:06.317Z,977.17
2023-02-24T04:32:06.246Z,977.12
2023-02-24T04:33:06.079Z,977.10
2023-02-24T04:34:06.034Z,977.09
2023-02-24T04:35:06.077Z,977.09
2023-02-24T04:36:06.026Z,977.08
2023-02-24T04:37:06.036Z,977.09
2023-02-24T04:38:05.994Z,977.10
2023-02-24T04:39:06.005Z,977.09
2023-02-24T04:40:05.966Z,977.12
2023-02-24T04:41:05.986Z,977.09
2023-02-24T04:42:05.974Z,977.05
2023-02-24T04:43:05.966Z,977.05
2023-02-24T04:44:05.918Z,977.04
2023-02-24T04:45:05.940Z,977.03
2023-02-24T04:46:05.972Z,977.04
2023-02-24T04:47:05.982Z,977.06
2023-02-24T04:48:05.900Z,977.01
2023-02-24T04:49:05.930Z,976.97
2023-02-24T04:50:05.859Z,976.99
2023-02-24T04:51:05.869Z,976.99
2023-02-24T04:52:05.850Z,976.96
2023-02-24T04:53:05.862Z,977.00
2023-02-24T04:54:05.818Z,977.00
2023-02-24T04:55:05.817Z,977.00
2023-02-24T04:56:05.801Z,976.94
2023-02-24T04:57:05.813Z,976.97
2023-02-24T04:58:05.773Z,977.00
2023-02-24T04:59:05.778Z,976.93
2023-02-24T05:00:05.764Z,976.95
2023-02-24T05:01:05.783Z,976.90
2023-02-24T05:02:05.723Z,976.91
2023-02-24T05:03:05.781Z,976.93
2023-02-24T05:04:05.836Z,976.93
2023-02-24T05:05:05.728Z,976.92
2023-02-24T05:06:05.697Z,976.96
2023-02-24T05:07:05.695Z,976.88
2023-02-24T05:08:05.666Z,976.86
2023-02-24T05:09:05.657Z,976.84
2023-02-24T05:10:05.646Z,976.86
2023-02-24T05:11:05.684Z,976.89
2023-02-24T05:12:05.631Z,976.89
2023-02-24T05:13:05.616Z,976.89
2023-02-24T05:14:05.610Z,976.91
2023-02-24T05:15:05.616Z,976.90
2023-02-24T05:16:05.597Z,976.88
2023-02-24T05:17:05.595Z,976.90
2023-02-24T05:18:05.575Z,976.85
2023-02-24T05:19:05.555Z,976.87
2023-02-24T05:20:05.531Z,976.87
2023-02-24T05:21:05.539Z,976.86
2023-02-24T05:22:05.508Z,976.89
2023-02-24T05:23:05.506Z,976.87
2023-02-24T05:24:05.490Z,976.83
2023-02-24T05:25:05.476Z,976.84
2023-02-24T05:26:05.465Z,976.76
2023-02-24T05:27:05.485Z,976.79
2023-02-24T05:28:05.578Z,976.80
2023-02-24T05:29:05.497Z,976.78
2023-02-24T05:30:05.448Z,976.75
2023-02-24T05:31:05.539Z,976.77
2023-02-24T05:32:05.536Z,976.77
2023-02-24T05:33:05.413Z,976.76
2023-02-24T05:34:05.376Z,976.77
2023-02-24T05:35:05.378Z,976.74
2023-02-24T05:36:05.831Z,976.74
2023-02-24T05:37:05.356Z,976.80
2023-02-24T05:38:05.324Z,976.80
2023-02-24T05:39:05.324Z,976.80
2023-02-24T05:40:05.297Z,976.77
2023-02-24T05:41:05.375Z,976.80
2023-02-24T05:42:05.286Z,976.78
2023-02-24T05:43:05.300Z,976.74
2023-02-24T05:44:05.241Z,976.72
2023-02-24T05:45:05.295Z,976.70
2023-02-24T05:46:05.239Z,976.66
2023-02-24T05:47:05.466Z,976.66
2023-02-24T05:48:05.251Z,976.67
2023-02-24T05:49:05.212Z,976.69
2023-02-24T05:50:05.206Z,976.67
2023-02-24T05:51:05.360Z,976.67
2023-02-24T05:52:05.150Z,976.71
2023-02-24T05:53:05.204Z,976.70
2023-02-24T05:54:05.167Z,976.70
2023-02-24T05:55:05.327Z,976.70
2023-02-24T05:56:05.100Z,976.68
2023-02-24T05:57:05.148Z,976.69
2023-02-24T05:58:05.101Z,976.68
2023-02-24T05:59:05.248Z,976.70
2023-02-24T06:00:05.075Z,976.68
2023-02-24T06:01:05.093Z,976.67
2023-02-24T06:02:05.107Z,976.67
2023-02-24T06:03:05.100Z,976.69
2023-02-24T06:04:05.024Z,976.67
2023-02-24T06:05:05.046Z,976.63
2023-02-24T06:06:05.030Z,976.62
2023-02-24T06:07:04.988Z,976.59
2023-02-24T06:08:04.967Z,976.60
2023-02-24T06:09:04.991Z,976.62
2023-02-24T06:10:05.009Z,976.65
2023-02-24T06:11:04.956Z,976.64
2023-02-24T06:12:04.934Z,976.63
2023-02-24T06:13:04.928Z,976.64
2023-02-24T06:14:04.922Z,976.68
2023-02-24T06:15:04.932Z,976.68
2023-02-24T06:16:05.087Z,976.65
2023-02-24T06:17:04.891Z,976.63
2023-02-24T06:18:04.873Z,976.62
2023-02-24T06:19:04.876Z,976.65
2023-02-24T06:20:04.827Z,976.62
2023-02-24T06:21:04.888Z,976.63
2023-02-24T06:22:04.827Z,976.62
2023-02-24T06:23:04.816Z,976.60
2023-02-24T06:24:04.797Z,976.60
2023-02-24T06:25:04.840Z,976.57
2023-02-24T06:26:04.756Z,976.59
2023-02-24T06:27:04.778Z,976.53
2023-02-24T06:28:04.736Z,976.52
2023-02-24T06:29:04.747Z,976.53
2023-02-24T06:30:04.766Z,976.48
2023-02-24T06:31:04.790Z,976.51
2023-02-24T06:32:04.782Z,976.51
2023-02-24T06:33:04.708Z,976.51
2023-02-24T06:34:05.061Z,976.52
2023-02-24T06:35:04.684Z,976.51
2023-02-24T06:36:04.650Z,976.51
2023-02-24T06:37:04.718Z,976.51
2023-02-24T06:38:04.630Z,976.49
2023-02-24T06:39:04.638Z,976.51
2023-02-24T06:40:04.609Z,976.46
2023-02-24T06:41:04.642Z,976.43
2023-02-24T06:42:04.612Z,976.42
2023-02-24T06:43:04.942Z,976.45
2023-02-24T06:44:04.585Z,976.42
2023-02-24T06:45:07.015Z,976.46
2023-02-24T06:46:04.616Z,976.45
2023-02-24T06:47:04.574Z,976.44
2023-02-24T06:48:04.647Z,976.41
2023-02-24T06:49:04.757Z,976.41
2023-02-24T06:50:04.772Z,976.43
2023-02-24T06:51:04.520Z,976.39
2023-02-24T06:52:04.482Z,976.40
2023-02-24T06:53:04.492Z,976.42
2023-02-24T06:54:04.455Z,976.40
2023-02-24T06:55:04.493Z,976.42
2023-02-24T06:56:04.434Z,976.39
2023-02-24T06:57:04.469Z,976.43
2023-02-24T06:58:04.611Z,976.44
2023-02-24T06:59:04.448Z,976.42
2023-02-24T07:00:04.388Z,976.44
2023-02-24T07:01:04.427Z,976.46
2023-02-24T07:02:04.412Z,976.47
2023-02-24T07:03:04.391Z,976.49
2023-02-24T07:04:04.397Z,976.45
2023-02-24T07:05:04.348Z,976.45
2023-02-24T07:06:04.330Z,976.44
2023-02-24T07:07:04.336Z,976.46
2023-02-24T07:08:04.309Z,976.44
2023-02-24T07:09:04.326Z,976.45
2023-02-24T07:10:04.495Z,976.49
2023-02-24T07:11:04.391Z,976.47
2023-02-24T07:12:04.626Z,976.50
2023-02-24T07:13:04.278Z,976.48
2023-02-24T07:14:04.225Z,976.46
2023-02-24T07:15:04.284Z,976.47
2023-02-24T07:16:04.239Z,976.49
2023-02-24T07:17:04.572Z,976.50
2023-02-24T07:18:04.197Z,976.52
2023-02-24T07:19:04.270Z,976.48
2023-02-24T07:20:04.277Z,976.48
2023-02-24T07:21:04.197Z,976.44
2023-02-24T07:22:04.596Z,976.45
2023-02-24T07:23:04.164Z,976.42
2023-02-24T07:24:04.119Z,976.39
2023-02-24T07:25:04.126Z,976.37
2023-02-24T07:26:04.096Z,976.34
2023-02-24T07:27:04.138Z,976.35
2023-02-24T07:28:04.093Z,976.30
2023-02-24T07:29:04.108Z,976.27
2023-02-24T07:30:04.121Z,976.27
2023-02-24T07:31:04.292Z,976.24
2023-02-24T07:32:04.116Z,976.21
2023-02-24T07:33:04.083Z,976.24
2023-02-24T07:34:04.019Z,976.20
2023-02-24T07:35:04.021Z,976.23
2023-02-24T07:36:03.987Z,976.28
2023-02-24T07:37:04.005Z,976.21
2023-02-24T07:38:04.186Z,976.25
2023-02-24T07:39:04.002Z,976.19
2023-02-24T07:40:03.934Z,976.17
2023-02-24T07:41:03.989Z,976.20
2023-02-24T07:42:03.962Z,976.20
2023-02-24T07:43:03.939Z,976.19
2023-02-24T07:44:04.352Z,976.25
2023-02-24T07:45:03.963Z,976.22
2023-02-24T07:46:03.913Z,976.23
2023-02-24T07:47:03.871Z,976.23
2023-02-24T07:48:03.882Z,976.22
2023-02-24T07:49:03.884Z,976.21
2023-02-24T07:50:03.870Z,976.20
2023-02-24T07:51:03.812Z,976.17
2023-02-24T07:52:03.865Z,976.17
2023-02-24T07:53:03.799Z,976.14
2023-02-24T07:54:03.818Z,976.17
2023-02-24T07:55:03.838Z,976.17
2023-02-24T07:56:03.800Z,976.09
2023-02-24T07:57:03.773Z,976.16
2023-02-24T07:58:03.808Z,976.08
2023-02-24T07:59:03.718Z,976.07
2023-02-24T08:00:03.743Z,976.08
2023-02-24T08:01:03.706Z,976.08
2023-02-24T08:02:03.814Z,976.14
2023-02-24T08:03:03.689Z,976.17
2023-02-24T08:04:03.685Z,976.17
2023-02-24T08:05:03.689Z,976.14
2023-02-24T08:06:03.668Z,976.16
2023-02-24T08:07:03.725Z,976.10
2023-02-24T08:08:03.652Z,976.08
2023-02-24T08:09:03.621Z,976.05
2023-02-24T08:10:03.695Z,976.06
2023-02-24T08:11:03.606Z,976.04
2023-02-24T08:12:03.638Z,976.04
2023-02-24T08:13:03.584Z,976.14
2023-02-24T08:14:03.599Z,976.01
2023-02-24T08:15:03.556Z,976.00
2023-02-24T08:16:03.661Z,975.99
2023-02-24T08:17:03.546Z,975.92
2023-02-24T08:18:03.549Z,975.93
2023-02-24T08:19:03.537Z,975.91
2023-02-24T08:20:03.528Z,975.87
2023-02-24T08:21:03.486Z,975.84
2023-02-24T08:22:03.491Z,975.79
2023-02-24T08:23:03.472Z,975.80
2023-02-24T08:24:03.539Z,975.75
2023-02-24T08:25:03.489Z,975.74
2023-02-24T08:26:03.674Z,975.76
2023-02-24T08:27:03.427Z,975.74
2023-02-24T08:28:08.929Z,975.73
2023-02-24T08:29:04.524Z,975.75
2023-02-24T08:30:03.445Z,975.71
2023-02-24T08:31:03.465Z,975.68
2023-02-24T08:32:03.505Z,975.70
2023-02-24T08:33:03.346Z,975.67
2023-02-24T08:34:03.369Z,975.65
2023-02-24T08:35:03.329Z,975.59
2023-02-24T08:36:03.325Z,975.62
2023-02-24T08:37:03.319Z,975.60
2023-02-24T08:38:03.333Z,975.55
2023-02-24T08:39:12.601Z,975.51
2023-02-24T08:40:03.501Z,975.53
2023-02-24T08:41:03.260Z,975.49
2023-02-24T08:42:03.322Z,975.47
2023-02-24T08:43:03.257Z,975.45
2023-02-24T08:44:03.281Z,975.44
2023-02-24T08:45:03.459Z,975.40
2023-02-24T08:46:03.246Z,975.36
2023-02-24T08:47:03.305Z,975.37
2023-02-24T08:48:03.230Z,975.32
2023-02-24T08:49:03.373Z,975.35
2023-02-24T08:50:03.217Z,975.37
2023-02-24T08:51:03.152Z,975.31
2023-02-24T08:52:03.925Z,975.28
2023-02-24T08:53:03.179Z,975.25
2023-02-24T08:54:03.154Z,975.17
2023-02-24T08:55:03.876Z,975.20
2023-02-24T08:56:03.126Z,975.14
2023-02-24T08:57:03.095Z,975.16
2023-02-24T08:58:03.148Z,975.14
2023-02-24T08:59:03.087Z,975.13
2023-02-24T09:00:03.096Z,975.08
2023-02-24T09:01:03.068Z,975.08
2023-02-24T09:02:05.014Z,975.11
2023-02-24T09:03:03.032Z,975.09
2023-02-24T09:04:03.092Z,975.07
2023-02-24T09:05:03.104Z,975.09
2023-02-24T09:06:03.027Z,975.06
2023-02-24T09:07:11.309Z,975.05
2023-02-24T09:08:03.986Z,975.01
2023-02-24T09:09:02.959Z,975.02
2023-02-24T09:10:03.019Z,975.00
2023-02-24T09:11:03.136Z,975.01
2023-02-24T09:12:02.945Z,974.97
2023-02-24T09:13:02.917Z,974.95
2023-02-24T09:14:02.972Z,974.92
2023-02-24T09:15:02.872Z,974.96
2023-02-24T09:16:02.944Z,974.92
2023-02-24T09:17:03.030Z,974.85
2023-02-24T09:18:02.906Z,974.93
2023-02-24T09:19:02.848Z,974.85
2023-02-24T09:20:02.868Z,974.84
2023-02-24T09:21:02.826Z,974.85
2023-02-24T09:22:04.226Z,974.85
2023-02-24T09:23:03.932Z,974.82
2023-02-24T09:24:02.855Z,974.89
2023-02-24T09:25:02.793Z,974.86
2023-02-24T09:26:02.918Z,974.85
2023-02-24T09:27:02.793Z,974.85
2023-02-24T09:28:02.776Z,974.82
2023-02-24T09:29:02.723Z,974.83
2023-02-24T09:30:02.816Z,974.84
2023-02-24T09:31:02.752Z,974.77
2023-02-24T09:32:02.815Z,974.80
2023-02-24T09:33:03.364Z,974.79
2023-02-24T09:34:02.702Z,974.75
2023-02-24T09:35:02.684Z,974.71
2023-02-24T09:36:02.686Z,974.76
2023-02-24T09:37:02.805Z,974.73
2023-02-24T09:38:02.768Z,974.71
2023-02-24T09:39:02.666Z,974.65
2023-02-24T09:40:02.650Z,974.65
2023-02-24T09:41:13.766Z,974.64
2023-02-24T09:42:03.620Z,974.63
2023-02-24T09:43:02.615Z,974.61
2023-02-24T09:44:02.582Z,974.63
2023-02-24T09:45:02.543Z,974.63
2023-02-24T09:46:02.732Z,974.65
2023-02-24T09:47:02.601Z,974.68
2023-02-24T09:48:02.561Z,974.72
2023-02-24T09:49:02.565Z,974.69
2023-02-24T09:50:02.552Z,974.66
2023-02-24T09:51:04.575Z,974.66
2023-02-24T09:52:02.526Z,974.64
2023-02-24T09:53:11.182Z,974.62
2023-02-24T09:54:03.521Z,974.65
2023-02-24T09:55:03.273Z,974.65
2023-02-24T09:56:02.470Z,974.66
2023-02-24T09:57:02.463Z,974.65
2023-02-24T09:58:02.449Z,974.65
2023-02-24T09:59:02.463Z,974.62
2023-02-24T10:00:02.399Z,974.65
2023-02-24T10:01:02.487Z,974.63
2023-02-24T10:02:02.576Z,974.61
2023-02-24T10:03:02.387Z,974.55
2023-02-24T10:04:06.226Z,974.59
2023-02-24T10:05:04.214Z,974.56
2023-02-24T10:06:02.326Z,974.52
2023-02-24T10:07:02.325Z,974.51
2023-02-24T10:08:02.382Z,974.50
2023-02-24T10:09:02.294Z,974.47
2023-02-24T10:10:02.320Z,974.42
2023-02-24T10:11:02.318Z,974.47
2023-02-24T10:12:02.281Z,974.45
2023-02-24T10:13:02.280Z,974.42
2023-02-24T10:14:03.649Z,974.49
2023-02-24T10:15:02.219Z,974.45
2023-02-24T10:16:08.768Z,974.47
2023-02-24T10:17:03.243Z,974.52
2023-02-24T10:18:02.214Z,974.52
2023-02-24T10:19:02.160Z,974.50
2023-02-24T10:20:02.233Z,974.48
2023-02-24T10:21:02.350Z,974.49
2023-02-24T10:22:02.172Z,974.46
2023-02-24T10:23:02.126Z,974.45
2023-02-24T10:24:02.239Z,974.40
2023-02-24T10:25:02.134Z,974.36
2023-02-24T10:26:06.705Z,974.33
2023-02-24T10:27:08.343Z,974.32
2023-02-24T10:28:03.221Z,974.24
2023-02-24T10:29:02.071Z,974.25
2023-02-24T10:30:02.068Z,974.20
2023-02-24T10:31:02.167Z,974.20
2023-02-24T10:32:02.231Z,974.24
2023-02-24T10:33:02.075Z,974.18
2023-02-24T10:34:02.148Z,974.15
2023-02-24T10:35:02.755Z,974.13
2023-02-24T10:36:02.116Z,974.15
2023-02-24T10:37:01.964Z,974.17
2023-02-24T10:38:02.008Z,974.19
2023-02-24T10:39:01.939Z,974.19
2023-02-24T10:40:02.002Z,974.14
2023-02-24T10:41:02.937Z,974.13
2023-02-24T10:42:01.970Z,974.16
2023-02-24T10:43:01.909Z,974.20
2023-02-24T10:44:02.005Z,974.15
2023-02-24T10:45:03.133Z,974.14
2023-02-24T10:46:02.040Z,974.13
2023-02-24T10:47:01.919Z,974.10
2023-02-24T10:48:02.054Z,974.10
2023-02-24T10:49:01.835Z,974.07
2023-02-24T10:50:01.954Z,974.04
2023-02-24T10:51:01.811Z,974.04
2023-02-24T10:52:01.842Z,974.02
2023-02-24T10:53:01.807Z,974.05
2023-02-24T10:54:01.871Z,974.05
2023-02-24T10:55:02.628Z,974.05
2023-02-24T10:56:02.570Z,974.06
2023-02-24T10:57:01.829Z,974.09
2023-02-24T10:58:01.778Z,974.10
2023-02-24T10:59:01.924Z,973.99
2023-02-24T11:00:01.758Z,973.98
2023-02-24T11:01:01.780Z,974.00
2023-02-24T11:02:01.735Z,974.04
2023-02-24T11:03:01.690Z,973.99
2023-02-24T11:04:01.686Z,973.94
2023-02-24T11:05:02.667Z,973.89
2023-02-24T11:06:01.668Z,973.85
2023-02-24T11:07:02.514Z,973.86
2023-02-24T11:08:02.366Z,973.86
2023-02-24T11:09:01.888Z,973.80
2023-02-24T11:10:01.675Z,973.87
2023-02-24T11:11:01.569Z,973.83
2023-02-24T11:12:01.705Z,973.76
2023-02-24T11:13:09.339Z,973.76
2023-02-24T11:14:02.597Z,973.77
2023-02-24T11:15:02.525Z,973.77
2023-02-24T11:16:01.920Z,973.71
2023-02-24T11:17:01.521Z,973.71
2023-02-24T11:18:01.810Z,973.68
2023-02-24T11:19:02.229Z,973.69
2023-02-24T11:20:01.566Z,973.65
2023-02-24T11:21:01.461Z,973.68
2023-02-24T11:22:01.490Z,973.66
2023-02-24T11:23:01.441Z,973.71
2023-02-24T11:24:01.443Z,973.64
2023-02-24T11:25:01.926Z,973.62
2023-02-24T11:26:01.427Z,973.61
2023-02-24T11:27:04.127Z,973.66
2023-02-24T11:28:01.676Z,973.54
2023-02-24T11:29:02.159Z,973.60
2023-02-24T11:30:01.391Z,973.58
2023-02-24T11:31:01.460Z,973.55
2023-02-24T11:32:01.729Z,973.54
2023-02-24T11:33:01.358Z,973.43
2023-02-24T11:34:01.487Z,973.44
2023-02-24T11:35:01.372Z,973.43
2023-02-24T11:36:02.274Z,973.42
2023-02-24T11:37:01.316Z,973.43
2023-02-24T11:38:01.305Z,973.38
2023-02-24T11:39:16.511Z,973.28
2023-02-24T11:40:02.295Z,973.31
2023-02-24T11:41:01.233Z,973.34
2023-02-24T11:42:01.255Z,973.34
2023-02-24T11:43:01.216Z,973.35
2023-02-24T11:44:01.240Z,973.33
2023-02-24T11:45:01.266Z,973.29
2023-02-24T11:46:01.207Z,973.28
2023-02-24T11:47:01.163Z,973.27
2023-02-24T11:48:01.164Z,973.25
2023-02-24T11:49:01.167Z,973.22
2023-02-24T11:50:02.628Z,973.22
2023-02-24T11:51:01.722Z,973.20
2023-02-24T11:52:01.140Z,973.20
2023-02-24T11:53:01.187Z,973.19
2023-02-24T11:54:01.104Z,973.16
2023-02-24T11:55:01.091Z,973.14
2023-02-24T11:56:01.121Z,973.17
2023-02-24T11:57:01.069Z,973.10
2023-02-24T11:58:01.051Z,973.06
2023-02-24T11:59:01.049Z,973.02
2023-02-24T12:00:01.061Z,973.06
2023-02-24T12:01:01.050Z,972.94
2023-02-24T12:02:01.010Z,972.96
2023-02-24T12:03:03.874Z,972.96
2023-02-24T12:04:00.971Z,972.94
2023-02-24T12:05:00.973Z,972.84
2023-02-24T12:06:01.107Z,972.91
2023-02-24T12:07:00.997Z,972.89
2023-02-24T12:08:01.031Z,972.91
2023-02-24T12:09:00.939Z,972.91
2023-02-24T12:10:15.613Z,972.88
2023-02-24T12:11:02.153Z,972.82
2023-02-24T12:12:00.907Z,972.82
2023-02-24T12:13:00.910Z,972.78
2023-02-24T12:14:00.903Z,972.83
2023-02-24T12:15:00.869Z,972.76
2023-02-24T12:16:01.790Z,972.73
2023-02-24T12:17:01.638Z,972.75
2023-02-24T12:18:01.552Z,972.68
2023-02-24T12:19:00.822Z,972.63
2023-02-24T12:20:00.789Z,972.64
2023-02-24T12:21:00.805Z,972.62
2023-02-24T12:22:00.773Z,972.64
2023-02-24T12:23:00.783Z,972.59
2023-02-24T12:24:00.740Z,972.56
2023-02-24T12:25:00.762Z,972.55
2023-02-24T12:26:01.113Z,972.55
2023-02-24T12:27:00.738Z,972.54
2023-02-24T12:28:00.746Z,972.54